sensor_id;sensor_type;location;lat;lon;timestamp;pressure;altitude;pressure_sealevel;temperature;humidity
32197;BME280;18697;42.770;23.400;2024-01-11T00:00:12;96593.13;;;-0.76;56.96
32197;BME280;18697;42.770;23.400;2024-01-11T00:02:37;96585.94;;;-0.88;56.57
32197;BME280;18697;42.770;23.400;2024-01-11T00:05:03;96589.03;;;-0.89;57.52
32197;BME280;18697;42.770;23.400;2024-01-11T00:07:29;96586.59;;;-0.94;57.31
32197;BME280;18697;42.770;23.400;2024-01-11T00:09:54;96582.25;;;-1.22;58.02
32197;BME280;18697;42.770;23.400;2024-01-11T00:12:19;96579.59;;;-1.41;59.83
32197;BME280;18697;42.770;23.400;2024-01-11T00:14:45;96576.69;;;-1.29;58.83
32197;BME280;18697;42.770;23.400;2024-01-11T00:17:10;96581.53;;;-1.42;58.66
32197;BME280;18697;42.770;23.400;2024-01-11T00:19:35;96585.56;;;-1.58;59.10
32197;BME280;18697;42.770;23.400;2024-01-11T00:22:01;96576.50;;;-1.40;59.77
32197;BME280;18697;42.770;23.400;2024-01-11T00:24:27;96570.50;;;-1.26;58.79
32197;BME280;18697;42.770;23.400;2024-01-11T00:26:52;96570.50;;;-1.26;58.96
32197;BME280;18697;42.770;23.400;2024-01-11T00:29:17;96569.59;;;-1.34;58.73
32197;BME280;18697;42.770;23.400;2024-01-11T00:31:43;96571.19;;;-1.33;58.34
32197;BME280;18697;42.770;23.400;2024-01-11T00:34:08;96559.97;;;-1.27;58.20
32197;BME280;18697;42.770;23.400;2024-01-11T00:36:33;96564.69;;;-1.24;57.33
32197;BME280;18697;42.770;23.400;2024-01-11T00:38:59;96558.88;;;-1.23;57.17
32197;BME280;18697;42.770;23.400;2024-01-11T00:41:25;96555.06;;;-1.18;57.52
32197;BME280;18697;42.770;23.400;2024-01-11T00:43:50;96558.56;;;-1.18;56.48
32197;BME280;18697;42.770;23.400;2024-01-11T00:46:16;96560.47;;;-1.22;56.46
32197;BME280;18697;42.770;23.400;2024-01-11T00:48:41;96552.88;;;-1.32;57.05
32197;BME280;18697;42.770;23.400;2024-01-11T00:51:06;96554.88;;;-1.29;56.96
32197;BME280;18697;42.770;23.400;2024-01-11T00:53:32;96557.97;;;-1.30;56.78
32197;BME280;18697;42.770;23.400;2024-01-11T00:55:58;96554.72;;;-1.40;56.84
32197;BME280;18697;42.770;23.400;2024-01-11T00:58:24;96556.13;;;-1.49;58.65
32197;BME280;18697;42.770;23.400;2024-01-11T01:00:49;96553.88;;;-1.67;59.63
32197;BME280;18697;42.770;23.400;2024-01-11T01:03:15;96556.91;;;-1.72;60.27
32197;BME280;18697;42.770;23.400;2024-01-11T01:05:41;96542.56;;;-1.69;59.83
32197;BME280;18697;42.770;23.400;2024-01-11T01:08:07;96553.69;;;-1.54;59.86
32197;BME280;18697;42.770;23.400;2024-01-11T01:10:32;96550.78;;;-1.42;59.28
32197;BME280;18697;42.770;23.400;2024-01-11T01:12:57;96553.97;;;-1.37;59.28
32197;BME280;18697;42.770;23.400;2024-01-11T01:15:23;96542.59;;;-1.42;58.43
32197;BME280;18697;42.770;23.400;2024-01-11T01:17:48;96541.41;;;-1.68;58.32
32197;BME280;18697;42.770;23.400;2024-01-11T01:20:13;96546.16;;;-1.84;59.59
32197;BME280;18697;42.770;23.400;2024-01-11T01:22:40;96546.09;;;-1.87;60.27
32197;BME280;18697;42.770;23.400;2024-01-11T01:25:05;96543.09;;;-1.82;60.82
32197;BME280;18697;42.770;23.400;2024-01-11T01:27:31;96543.34;;;-1.68;60.80
32197;BME280;18697;42.770;23.400;2024-01-11T01:29:56;96536.38;;;-1.66;60.51
32197;BME280;18697;42.770;23.400;2024-01-11T01:32:21;96548.31;;;-1.74;59.75
32197;BME280;18697;42.770;23.400;2024-01-11T01:34:47;96540.59;;;-1.91;59.56
32197;BME280;18697;42.770;23.400;2024-01-11T01:37:12;96542.75;;;-2.00;60.26
32197;BME280;18697;42.770;23.400;2024-01-11T01:39:38;96536.88;;;-2.02;60.85
32197;BME280;18697;42.770;23.400;2024-01-11T01:42:04;96530.22;;;-2.05;61.29
32197;BME280;18697;42.770;23.400;2024-01-11T01:44:30;96535.75;;;-2.20;61.10
32197;BME280;18697;42.770;23.400;2024-01-11T01:46:55;96518.16;;;-2.26;61.68
32197;BME280;18697;42.770;23.400;2024-01-11T01:49:21;96520.56;;;-2.21;61.44
32197;BME280;18697;42.770;23.400;2024-01-11T01:51:47;96528.53;;;-2.32;60.95
32197;BME280;18697;42.770;23.400;2024-01-11T01:54:13;96522.66;;;-2.34;61.37
32197;BME280;18697;42.770;23.400;2024-01-11T01:56:39;96514.72;;;-2.23;62.39
32197;BME280;18697;42.770;23.400;2024-01-11T01:59:05;96523.56;;;-2.07;61.81
32197;BME280;18697;42.770;23.400;2024-01-11T02:01:30;96515.59;;;-1.96;60.64
32197;BME280;18697;42.770;23.400;2024-01-11T02:03:57;96520.25;;;-1.97;60.81
32197;BME280;18697;42.770;23.400;2024-01-11T02:06:25;96507.84;;;-1.94;59.97
32197;BME280;18697;42.770;23.400;2024-01-11T02:08:54;96508.16;;;-2.00;59.90
32197;BME280;18697;42.770;23.400;2024-01-11T02:11:21;96505.63;;;-1.89;59.35
32197;BME280;18697;42.770;23.400;2024-01-11T02:13:51;96509.63;;;-1.83;59.21
32197;BME280;18697;42.770;23.400;2024-01-11T02:16:16;96501.94;;;-1.77;58.32
32197;BME280;18697;42.770;23.400;2024-01-11T02:18:42;96496.91;;;-1.75;58.73
32197;BME280;18697;42.770;23.400;2024-01-11T02:21:09;96486.66;;;-2.05;57.96
32197;BME280;18697;42.770;23.400;2024-01-11T02:23:42;96494.19;;;-2.17;59.97
32197;BME280;18697;42.770;23.400;2024-01-11T02:26:10;96489.25;;;-2.12;59.21
32197;BME280;18697;42.770;23.400;2024-01-11T02:28:36;96484.09;;;-2.17;59.44
32197;BME280;18697;42.770;23.400;2024-01-11T02:31:01;96502.72;;;-2.19;60.47
32197;BME280;18697;42.770;23.400;2024-01-11T02:33:26;96500.84;;;-2.15;60.28
32197;BME280;18697;42.770;23.400;2024-01-11T02:35:52;96501.78;;;-2.07;58.50
32197;BME280;18697;42.770;23.400;2024-01-11T02:38:17;96495.28;;;-2.22;58.35
32197;BME280;18697;42.770;23.400;2024-01-11T02:40:43;96498.50;;;-2.16;58.01
32197;BME280;18697;42.770;23.400;2024-01-11T02:43:10;96486.31;;;-2.22;58.39
32197;BME280;18697;42.770;23.400;2024-01-11T02:45:36;96492.53;;;-2.25;58.47
32197;BME280;18697;42.770;23.400;2024-01-11T02:48:02;96493.16;;;-2.32;59.27
32197;BME280;18697;42.770;23.400;2024-01-11T02:50:27;96489.81;;;-2.25;59.58
32197;BME280;18697;42.770;23.400;2024-01-11T02:52:52;96485.50;;;-2.26;60.59
32197;BME280;18697;42.770;23.400;2024-01-11T02:55:18;96491.66;;;-2.29;61.28
32197;BME280;18697;42.770;23.400;2024-01-11T02:57:43;96490.03;;;-2.34;61.39
32197;BME280;18697;42.770;23.400;2024-01-11T03:00:09;96482.22;;;-2.36;62.21
32197;BME280;18697;42.770;23.400;2024-01-11T03:02:34;96484.66;;;-2.30;62.03
32197;BME280;18697;42.770;23.400;2024-01-11T03:04:59;96491.03;;;-2.42;61.51
32197;BME280;18697;42.770;23.400;2024-01-11T03:07:25;96485.00;;;-2.51;62.59
32197;BME280;18697;42.770;23.400;2024-01-11T03:09:50;96486.16;;;-2.52;62.87
32197;BME280;18697;42.770;23.400;2024-01-11T03:12:15;96491.31;;;-2.67;62.24
32197;BME280;18697;42.770;23.400;2024-01-11T03:14:41;96485.00;;;-2.90;63.00
32197;BME280;18697;42.770;23.400;2024-01-11T03:17:06;96488.38;;;-2.77;62.70
32197;BME280;18697;42.770;23.400;2024-01-11T03:19:31;96481.78;;;-2.76;62.88
32197;BME280;18697;42.770;23.400;2024-01-11T03:21:57;96484.66;;;-2.69;63.17
32197;BME280;18697;42.770;23.400;2024-01-11T03:24:23;96478.56;;;-2.62;63.91
32197;BME280;18697;42.770;23.400;2024-01-11T03:26:48;96484.38;;;-2.64;63.56
32197;BME280;18697;42.770;23.400;2024-01-11T03:29:13;96477.94;;;-2.56;64.16
32197;BME280;18697;42.770;23.400;2024-01-11T03:31:39;96476.44;;;-2.53;64.45
32197;BME280;18697;42.770;23.400;2024-01-11T03:34:07;96470.63;;;-2.52;64.04
32197;BME280;18697;42.770;23.400;2024-01-11T03:36:33;96466.63;;;-2.58;63.82
32197;BME280;18697;42.770;23.400;2024-01-11T03:38:58;96474.63;;;-2.46;63.98
32197;BME280;18697;42.770;23.400;2024-01-11T03:41:23;96460.38;;;-2.39;63.97
32197;BME280;18697;42.770;23.400;2024-01-11T03:43:50;96475.63;;;-2.35;62.67
32197;BME280;18697;42.770;23.400;2024-01-11T03:46:15;96460.25;;;-2.46;62.11
32197;BME280;18697;42.770;23.400;2024-01-11T03:48:41;96459.03;;;-2.49;60.94
32197;BME280;18697;42.770;23.400;2024-01-11T03:51:06;96464.88;;;-2.27;59.81
32197;BME280;18697;42.770;23.400;2024-01-11T03:53:35;96461.47;;;-2.21;59.73
32197;BME280;18697;42.770;23.400;2024-01-11T03:56:01;96450.06;;;-2.30;60.48
32197;BME280;18697;42.770;23.400;2024-01-11T03:58:27;96459.16;;;-2.42;60.62
32197;BME280;18697;42.770;23.400;2024-01-11T04:00:52;96458.75;;;-2.44;61.11
32197;BME280;18697;42.770;23.400;2024-01-11T04:03:18;96454.09;;;-2.43;61.56
32197;BME280;18697;42.770;23.400;2024-01-11T04:05:43;96456.09;;;-2.40;62.65
32197;BME280;18697;42.770;23.400;2024-01-11T04:08:08;96455.59;;;-2.46;62.66
32197;BME280;18697;42.770;23.400;2024-01-11T04:10:34;96455.22;;;-2.44;62.38
32197;BME280;18697;42.770;23.400;2024-01-11T04:12:59;96459.38;;;-2.50;62.27
32197;BME280;18697;42.770;23.400;2024-01-11T04:15:25;96457.22;;;-2.41;61.84
32197;BME280;18697;42.770;23.400;2024-01-11T04:17:50;96451.72;;;-2.45;62.95
32197;BME280;18697;42.770;23.400;2024-01-11T04:20:16;96455.75;;;-2.58;63.68
32197;BME280;18697;42.770;23.400;2024-01-11T04:22:41;96447.88;;;-2.82;62.88
32197;BME280;18697;42.770;23.400;2024-01-11T04:25:07;96451.81;;;-2.80;63.30
32197;BME280;18697;42.770;23.400;2024-01-11T04:27:32;96448.88;;;-2.71;64.89
32197;BME280;18697;42.770;23.400;2024-01-11T04:29:58;96451.44;;;-2.78;64.57
32197;BME280;18697;42.770;23.400;2024-01-11T04:32:23;96453.94;;;-2.70;65.56
32197;BME280;18697;42.770;23.400;2024-01-11T04:34:48;96453.09;;;-2.74;64.58
32197;BME280;18697;42.770;23.400;2024-01-11T04:37:14;96451.09;;;-2.77;65.43
32197;BME280;18697;42.770;23.400;2024-01-11T04:39:39;96456.16;;;-2.75;65.73
32197;BME280;18697;42.770;23.400;2024-01-11T04:42:05;96447.28;;;-2.72;65.75
32197;BME280;18697;42.770;23.400;2024-01-11T04:44:30;96442.50;;;-2.59;67.07
32197;BME280;18697;42.770;23.400;2024-01-11T04:46:55;96454.72;;;-2.50;66.73
32197;BME280;18697;42.770;23.400;2024-01-11T04:49:21;96448.22;;;-2.65;64.90
32197;BME280;18697;42.770;23.400;2024-01-11T04:51:46;96450.88;;;-2.68;66.11
32197;BME280;18697;42.770;23.400;2024-01-11T04:54:11;96456.66;;;-2.70;67.09
32197;BME280;18697;42.770;23.400;2024-01-11T04:56:37;96456.03;;;-2.63;66.87
32197;BME280;18697;42.770;23.400;2024-01-11T04:59:02;96449.88;;;-2.60;66.75
32197;BME280;18697;42.770;23.400;2024-01-11T05:01:28;96454.72;;;-2.50;66.27
32197;BME280;18697;42.770;23.400;2024-01-11T05:03:53;96453.16;;;-2.51;67.74
32197;BME280;18697;42.770;23.400;2024-01-11T05:06:20;96452.22;;;-2.58;67.10
32197;BME280;18697;42.770;23.400;2024-01-11T05:08:47;96448.44;;;-2.54;67.41
32197;BME280;18697;42.770;23.400;2024-01-11T05:11:20;96449.28;;;-2.69;66.03
32197;BME280;18697;42.770;23.400;2024-01-11T05:13:46;96450.06;;;-2.88;65.61
32197;BME280;18697;42.770;23.400;2024-01-11T05:18:45;96439.13;;;-3.11;70.70
32197;BME280;18697;42.770;23.400;2024-01-11T05:21:10;96444.00;;;-3.01;70.46
32197;BME280;18697;42.770;23.400;2024-01-11T05:23:36;96445.63;;;-2.96;70.50
32197;BME280;18697;42.770;23.400;2024-01-11T05:26:01;96444.44;;;-2.79;71.24
32197;BME280;18697;42.770;23.400;2024-01-11T05:28:27;96442.13;;;-2.77;71.95
32197;BME280;18697;42.770;23.400;2024-01-11T05:30:52;96435.69;;;-2.69;70.43
32197;BME280;18697;42.770;23.400;2024-01-11T05:33:18;96438.06;;;-2.68;70.34
32197;BME280;18697;42.770;23.400;2024-01-11T05:35:43;96435.47;;;-2.80;69.83
32197;BME280;18697;42.770;23.400;2024-01-11T05:38:08;96439.13;;;-2.72;69.52
32197;BME280;18697;42.770;23.400;2024-01-11T05:40:34;96434.28;;;-2.63;70.51
32197;BME280;18697;42.770;23.400;2024-01-11T05:42:59;96425.31;;;-2.63;69.91
32197;BME280;18697;42.770;23.400;2024-01-11T05:45:24;96427.41;;;-2.57;68.57
32197;BME280;18697;42.770;23.400;2024-01-11T05:47:50;96425.75;;;-2.61;68.16
32197;BME280;18697;42.770;23.400;2024-01-11T05:50:15;96410.22;;;-2.61;68.29
32197;BME280;18697;42.770;23.400;2024-01-11T05:52:40;96408.84;;;-2.51;67.64
32197;BME280;18697;42.770;23.400;2024-01-11T05:55:06;96411.66;;;-2.67;66.55
32197;BME280;18697;42.770;23.400;2024-01-11T05:57:32;96416.09;;;-2.78;67.65
32197;BME280;18697;42.770;23.400;2024-01-11T05:59:57;96418.88;;;-2.75;68.67
32197;BME280;18697;42.770;23.400;2024-01-11T06:02:23;96415.94;;;-2.66;68.17
32197;BME280;18697;42.770;23.400;2024-01-11T06:04:48;96410.94;;;-2.64;68.63
32197;BME280;18697;42.770;23.400;2024-01-11T06:07:14;96411.94;;;-2.53;68.52
32197;BME280;18697;42.770;23.400;2024-01-11T06:09:40;96408.00;;;-2.55;68.37
32197;BME280;18697;42.770;23.400;2024-01-11T06:12:05;96409.53;;;-2.35;69.04
32197;BME280;18697;42.770;23.400;2024-01-11T06:14:31;96407.53;;;-2.15;67.72
32197;BME280;18697;42.770;23.400;2024-01-11T06:16:56;96394.22;;;-1.98;67.19
32197;BME280;18697;42.770;23.400;2024-01-11T06:19:22;96403.22;;;-1.71;66.64
32197;BME280;18697;42.770;23.400;2024-01-11T06:21:48;96399.28;;;-1.47;65.67
32197;BME280;18697;42.770;23.400;2024-01-11T06:24:13;96400.00;;;-1.23;62.77
32197;BME280;18697;42.770;23.400;2024-01-11T06:26:39;96395.75;;;-0.91;62.22
32197;BME280;18697;42.770;23.400;2024-01-11T06:29:04;96393.63;;;-0.71;60.78
32197;BME280;18697;42.770;23.400;2024-01-11T06:31:29;96400.53;;;-0.47;58.90
32197;BME280;18697;42.770;23.400;2024-01-11T06:33:55;96393.72;;;-0.64;60.18
32197;BME280;18697;42.770;23.400;2024-01-11T06:36:21;96403.84;;;-0.64;59.08
32197;BME280;18697;42.770;23.400;2024-01-11T06:38:46;96393.97;;;-0.76;59.18
32197;BME280;18697;42.770;23.400;2024-01-11T06:41:12;96391.91;;;-0.86;58.98
32197;BME280;18697;42.770;23.400;2024-01-11T06:43:37;96390.66;;;-0.92;61.65
32197;BME280;18697;42.770;23.400;2024-01-11T06:46:06;96387.84;;;-1.00;60.87
32197;BME280;18697;42.770;23.400;2024-01-11T06:48:32;96386.41;;;-0.90;61.33
32197;BME280;18697;42.770;23.400;2024-01-11T06:50:58;96388.84;;;-0.81;60.76
32197;BME280;18697;42.770;23.400;2024-01-11T06:53:23;96390.97;;;-0.64;58.98
32197;BME280;18697;42.770;23.400;2024-01-11T06:55:48;96398.22;;;-0.45;58.86
32197;BME280;18697;42.770;23.400;2024-01-11T06:58:15;96396.59;;;-0.50;58.34
32197;BME280;18697;42.770;23.400;2024-01-11T07:00:41;96403.22;;;-0.51;58.47
32197;BME280;18697;42.770;23.400;2024-01-11T07:03:09;96393.25;;;-0.70;58.32
32197;BME280;18697;42.770;23.400;2024-01-11T07:05:35;96392.19;;;-0.61;58.82
32197;BME280;18697;42.770;23.400;2024-01-11T07:08:01;96384.63;;;-0.75;59.98
32197;BME280;18697;42.770;23.400;2024-01-11T07:10:26;96383.91;;;-1.02;62.28
32197;BME280;18697;42.770;23.400;2024-01-11T07:12:51;96378.06;;;-1.04;62.09
32197;BME280;18697;42.770;23.400;2024-01-11T07:15:17;96382.44;;;-1.26;62.05
32197;BME280;18697;42.770;23.400;2024-01-11T07:17:42;96385.06;;;-1.33;62.73
32197;BME280;18697;42.770;23.400;2024-01-11T07:20:08;96378.47;;;-1.02;62.46
32197;BME280;18697;42.770;23.400;2024-01-11T07:22:34;96381.66;;;-0.96;62.28
32197;BME280;18697;42.770;23.400;2024-01-11T07:24:59;96382.38;;;-0.66;61.89
32197;BME280;18697;42.770;23.400;2024-01-11T07:27:25;96385.69;;;-0.50;60.93
32197;BME280;18697;42.770;23.400;2024-01-11T07:29:50;96382.28;;;-0.40;59.71
32197;BME280;18697;42.770;23.400;2024-01-11T07:32:16;96384.06;;;-0.17;59.62
32197;BME280;18697;42.770;23.400;2024-01-11T07:34:41;96383.78;;;-0.05;57.83
32197;BME280;18697;42.770;23.400;2024-01-11T07:37:06;96380.84;;;0.18;58.03
32197;BME280;18697;42.770;23.400;2024-01-11T07:39:33;96377.25;;;0.10;58.23
32197;BME280;18697;42.770;23.400;2024-01-11T07:42:00;96376.16;;;0.18;58.60
32197;BME280;18697;42.770;23.400;2024-01-11T07:44:26;96379.69;;;0.22;58.34
32197;BME280;18697;42.770;23.400;2024-01-11T07:46:51;96370.28;;;0.16;58.78
32197;BME280;18697;42.770;23.400;2024-01-11T07:49:16;96363.72;;;-0.23;59.90
32197;BME280;18697;42.770;23.400;2024-01-11T07:51:42;96372.34;;;-0.58;61.25
32197;BME280;18697;42.770;23.400;2024-01-11T07:54:07;96363.75;;;-0.94;62.95
32197;BME280;18697;42.770;23.400;2024-01-11T07:56:32;96366.16;;;-0.52;62.41
32197;BME280;18697;42.770;23.400;2024-01-11T07:58:58;96364.78;;;-0.72;63.11
32197;BME280;18697;42.770;23.400;2024-01-11T08:01:23;96367.41;;;-1.43;64.22
32197;BME280;18697;42.770;23.400;2024-01-11T08:03:48;96366.63;;;-1.13;65.19
32197;BME280;18697;42.770;23.400;2024-01-11T08:06:17;96366.47;;;-0.60;64.14
32197;BME280;18697;42.770;23.400;2024-01-11T08:08:42;96357.91;;;-0.18;61.63
32197;BME280;18697;42.770;23.400;2024-01-11T08:11:09;96355.41;;;0.10;61.83
32197;BME280;18697;42.770;23.400;2024-01-11T08:13:34;96349.97;;;0.14;58.85
32197;BME280;18697;42.770;23.400;2024-01-11T08:16:03;96352.66;;;0.07;59.58
32197;BME280;18697;42.770;23.400;2024-01-11T08:18:30;96348.63;;;0.45;59.30
32197;BME280;18697;42.770;23.400;2024-01-11T08:20:56;96342.56;;;0.73;58.62
32197;BME280;18697;42.770;23.400;2024-01-11T08:23:21;96344.78;;;0.53;57.56
32197;BME280;18697;42.770;23.400;2024-01-11T08:25:47;96346.81;;;0.67;57.61
32197;BME280;18697;42.770;23.400;2024-01-11T08:28:12;96337.16;;;0.90;57.17
32197;BME280;18697;42.770;23.400;2024-01-11T08:30:37;96354.13;;;1.35;56.38
32197;BME280;18697;42.770;23.400;2024-01-11T08:33:03;96351.81;;;1.44;54.94
32197;BME280;18697;42.770;23.400;2024-01-11T08:35:29;96350.28;;;1.64;54.30
32197;BME280;18697;42.770;23.400;2024-01-11T08:37:55;96353.06;;;2.07;53.84
32197;BME280;18697;42.770;23.400;2024-01-11T08:40:20;96347.59;;;2.21;52.26
32197;BME280;18697;42.770;23.400;2024-01-11T08:42:46;96351.69;;;3.15;51.18
32197;BME280;18697;42.770;23.400;2024-01-11T08:45:11;96350.00;;;3.39;49.10
32197;BME280;18697;42.770;23.400;2024-01-11T08:47:45;96345.72;;;3.38;50.30
32197;BME280;18697;42.770;23.400;2024-01-11T08:50:14;96342.91;;;3.52;49.05
32197;BME280;18697;42.770;23.400;2024-01-11T08:52:41;96345.00;;;3.89;48.93
32197;BME280;18697;42.770;23.400;2024-01-11T08:55:07;96336.66;;;3.41;48.92
32197;BME280;18697;42.770;23.400;2024-01-11T08:57:32;96329.47;;;2.84;50.52
32197;BME280;18697;42.770;23.400;2024-01-11T08:59:58;96329.94;;;3.52;50.32
32197;BME280;18697;42.770;23.400;2024-01-11T09:02:23;96324.16;;;3.95;50.30
32197;BME280;18697;42.770;23.400;2024-01-11T09:04:49;96328.72;;;4.16;48.99
32197;BME280;18697;42.770;23.400;2024-01-11T09:07:14;96326.03;;;4.50;47.51
32197;BME280;18697;42.770;23.400;2024-01-11T09:09:40;96317.81;;;4.02;47.24
32197;BME280;18697;42.770;23.400;2024-01-11T09:12:06;96313.59;;;3.24;50.11
32197;BME280;18697;42.770;23.400;2024-01-11T09:14:32;96297.34;;;2.81;50.86
32197;BME280;18697;42.770;23.400;2024-01-11T09:16:57;96295.22;;;3.14;50.68
32197;BME280;18697;42.770;23.400;2024-01-11T09:19:22;96293.28;;;3.73;50.25
32197;BME280;18697;42.770;23.400;2024-01-11T09:21:48;96287.50;;;3.64;50.24
32197;BME280;18697;42.770;23.400;2024-01-11T09:24:14;96292.50;;;4.24;49.51
32197;BME280;18697;42.770;23.400;2024-01-11T09:26:39;96296.22;;;4.82;47.50
32197;BME280;18697;42.770;23.400;2024-01-11T09:29:04;96292.13;;;4.98;47.93
32197;BME280;18697;42.770;23.400;2024-01-11T09:31:30;96286.34;;;5.19;46.75
32197;BME280;18697;42.770;23.400;2024-01-11T09:33:55;96294.50;;;5.56;46.68
32197;BME280;18697;42.770;23.400;2024-01-11T09:36:22;96273.38;;;6.00;45.13
32197;BME280;18697;42.770;23.400;2024-01-11T09:38:47;96276.75;;;6.11;44.06
32197;BME280;18697;42.770;23.400;2024-01-11T09:41:14;96272.31;;;6.17;44.44
32197;BME280;18697;42.770;23.400;2024-01-11T09:43:41;96268.34;;;6.42;44.20
32197;BME280;18697;42.770;23.400;2024-01-11T09:46:07;96261.75;;;6.12;43.65
32197;BME280;18697;42.770;23.400;2024-01-11T09:48:34;96261.81;;;6.09;43.34
32197;BME280;18697;42.770;23.400;2024-01-11T09:51:04;96258.16;;;6.15;43.96
32197;BME280;18697;42.770;23.400;2024-01-11T09:53:33;96250.00;;;6.32;43.34
32197;BME280;18697;42.770;23.400;2024-01-11T09:56:00;96250.66;;;6.16;43.21
32197;BME280;18697;42.770;23.400;2024-01-11T09:58:26;96240.16;;;6.31;43.55
32197;BME280;18697;42.770;23.400;2024-01-11T10:00:55;96246.47;;;6.31;43.42
32197;BME280;18697;42.770;23.400;2024-01-11T10:03:24;96238.97;;;6.08;43.33
32197;BME280;18697;42.770;23.400;2024-01-11T10:05:50;96234.81;;;6.20;43.27
32197;BME280;18697;42.770;23.400;2024-01-11T10:08:21;96238.19;;;6.08;43.86
32197;BME280;18697;42.770;23.400;2024-01-11T10:10:47;96231.09;;;6.07;43.17
32197;BME280;18697;42.770;23.400;2024-01-11T10:13:13;96219.72;;;5.81;44.31
32197;BME280;18697;42.770;23.400;2024-01-11T10:15:39;96218.94;;;5.81;44.30
32197;BME280;18697;42.770;23.400;2024-01-11T10:18:04;96207.50;;;5.55;44.70
32197;BME280;18697;42.770;23.400;2024-01-11T10:20:29;96203.63;;;5.53;45.16
32197;BME280;18697;42.770;23.400;2024-01-11T10:22:57;96198.31;;;5.66;45.32
32197;BME280;18697;42.770;23.400;2024-01-11T10:25:23;96189.59;;;5.94;45.00
32197;BME280;18697;42.770;23.400;2024-01-11T10:27:49;96181.69;;;6.16;44.78
32197;BME280;18697;42.770;23.400;2024-01-11T10:30:15;96176.09;;;6.43;44.81
32197;BME280;18697;42.770;23.400;2024-01-11T10:32:42;96175.16;;;6.49;43.98
32197;BME280;18697;42.770;23.400;2024-01-11T10:35:07;96177.50;;;6.51;44.10
32197;BME280;18697;42.770;23.400;2024-01-11T10:37:33;96185.22;;;6.40;44.07
32197;BME280;18697;42.770;23.400;2024-01-11T10:40:03;96170.06;;;6.68;43.20
32197;BME280;18697;42.770;23.400;2024-01-11T10:42:31;96162.09;;;6.89;43.44
32197;BME280;18697;42.770;23.400;2024-01-11T10:44:59;96159.84;;;6.84;42.40
32197;BME280;18697;42.770;23.400;2024-01-11T10:47:27;96163.72;;;7.07;42.84
32197;BME280;18697;42.770;23.400;2024-01-11T10:49:56;96154.75;;;7.19;43.07
32197;BME280;18697;42.770;23.400;2024-01-11T10:52:28;96156.84;;;7.31;41.96
32197;BME280;18697;42.770;23.400;2024-01-11T10:54:59;96149.94;;;7.55;41.95
32197;BME280;18697;42.770;23.400;2024-01-11T10:57:25;96144.09;;;7.37;42.49
32197;BME280;18697;42.770;23.400;2024-01-11T10:59:52;96123.16;;;7.20;43.57
32197;BME280;18697;42.770;23.400;2024-01-11T11:02:19;96125.09;;;7.39;43.55
32197;BME280;18697;42.770;23.400;2024-01-11T11:04:46;96119.63;;;7.68;42.62
32197;BME280;18697;42.770;23.400;2024-01-11T11:07:12;96111.22;;;7.72;42.00
32197;BME280;18697;42.770;23.400;2024-01-11T11:09:41;96109.50;;;7.78;41.35
32197;BME280;18697;42.770;23.400;2024-01-11T11:12:10;96100.19;;;7.72;42.36
32197;BME280;18697;42.770;23.400;2024-01-11T11:14:36;96096.44;;;7.78;43.31
32197;BME280;18697;42.770;23.400;2024-01-11T11:17:03;96080.13;;;8.13;42.57
32197;BME280;18697;42.770;23.400;2024-01-11T11:19:29;96081.53;;;8.34;41.92
32197;BME280;18697;42.770;23.400;2024-01-11T11:21:55;96076.16;;;8.55;41.53
32197;BME280;18697;42.770;23.400;2024-01-11T11:24:20;96072.22;;;8.69;41.30
32197;BME280;18697;42.770;23.400;2024-01-11T11:26:46;96070.31;;;8.66;40.34
32197;BME280;18697;42.770;23.400;2024-01-11T11:29:11;96058.56;;;8.62;40.71
32197;BME280;18697;42.770;23.400;2024-01-11T11:31:45;96055.94;;;8.71;41.42
32197;BME280;18697;42.770;23.400;2024-01-11T11:34:19;96051.06;;;8.75;40.89
32197;BME280;18697;42.770;23.400;2024-01-11T11:36:50;96043.50;;;8.63;40.65
32197;BME280;18697;42.770;23.400;2024-01-11T11:39:20;96036.75;;;8.64;40.24
32197;BME280;18697;42.770;23.400;2024-01-11T11:41:45;96034.09;;;8.61;41.19
32197;BME280;18697;42.770;23.400;2024-01-11T11:44:12;96039.31;;;8.71;40.92
32197;BME280;18697;42.770;23.400;2024-01-11T11:46:39;96031.13;;;8.80;40.78
32197;BME280;18697;42.770;23.400;2024-01-11T11:49:04;96017.91;;;8.97;40.08
32197;BME280;18697;42.770;23.400;2024-01-11T11:51:30;96028.44;;;9.02;39.59
32197;BME280;18697;42.770;23.400;2024-01-11T11:53:55;96022.78;;;9.18;39.26
32197;BME280;18697;42.770;23.400;2024-01-11T11:56:22;96021.06;;;9.46;39.86
32197;BME280;18697;42.770;23.400;2024-01-11T11:58:49;96012.06;;;9.55;39.86
32197;BME280;18697;42.770;23.400;2024-01-11T12:01:20;96014.44;;;9.31;39.59
32197;BME280;18697;42.770;23.400;2024-01-11T12:03:46;95996.16;;;9.34;40.39
32197;BME280;18697;42.770;23.400;2024-01-11T12:06:18;96000.88;;;9.46;39.31
32197;BME280;18697;42.770;23.400;2024-01-11T12:08:46;95993.25;;;9.37;39.48
32197;BME280;18697;42.770;23.400;2024-01-11T12:11:17;95978.56;;;9.15;40.48
32197;BME280;18697;42.770;23.400;2024-01-11T12:13:43;95973.59;;;9.44;39.75
32197;BME280;18697;42.770;23.400;2024-01-11T12:16:10;95967.78;;;9.64;40.11
32197;BME280;18697;42.770;23.400;2024-01-11T12:18:35;95969.56;;;9.80;39.54
32197;BME280;18697;42.770;23.400;2024-01-11T12:21:01;95965.13;;;10.04;39.54
32197;BME280;18697;42.770;23.400;2024-01-11T12:23:28;95956.53;;;10.11;39.33
32197;BME280;18697;42.770;23.400;2024-01-11T12:25:58;95962.19;;;10.20;39.37
32197;BME280;18697;42.770;23.400;2024-01-11T12:28:24;95946.53;;;9.92;39.71
32197;BME280;18697;42.770;23.400;2024-01-11T12:30:49;95944.81;;;10.07;40.19
32197;BME280;18697;42.770;23.400;2024-01-11T12:33:15;95938.81;;;10.31;39.15
32197;BME280;18697;42.770;23.400;2024-01-11T12:35:41;95939.25;;;10.29;38.60
32197;BME280;18697;42.770;23.400;2024-01-11T12:38:06;95945.84;;;10.53;38.29
32197;BME280;18697;42.770;23.400;2024-01-11T12:40:32;95947.84;;;10.22;38.29
32197;BME280;18697;42.770;23.400;2024-01-11T12:42:59;95935.78;;;10.47;38.57
32197;BME280;18697;42.770;23.400;2024-01-11T12:45:25;95928.97;;;10.39;38.96
32197;BME280;18697;42.770;23.400;2024-01-11T12:47:54;95918.66;;;10.17;39.73